Terminal Aerodrome Forecast
Issued by NWS

Home | Current Version | Previous Version | Text Only | Print | Product List | Glossary On
Versions: 1 2 3 4 5 6 7 8 9 10 11 12 13 14 15 16
232
FTUS43 KICT 282340
TAFRSL
TAF
KRSL 282340Z 2900/2924 04009KT P6SM BKN060 OVC150
     FM290600 04017KT P6SM VCSH SCT015 OVC060
     FM290900 08013KT 4SM TSRA OVC015CB=

USA.gov is the U.S. government's official web portal to all federal, state and local government web resources and services.